createdAt,value
2023-03-06T00:02:06.988Z,36.15
2023-03-06T00:04:33.802Z,35.95
2023-03-06T00:07:00.258Z,35.65
2023-03-06T00:09:26.620Z,35.74
2023-03-06T00:11:53.904Z,35.76
2023-03-06T00:14:20.335Z,36.14
2023-03-06T00:16:46.770Z,35.72
2023-03-06T00:19:13.218Z,35.73
2023-03-06T00:21:39.700Z,35.50
2023-03-06T00:24:06.390Z,36.27
2023-03-06T00:26:32.800Z,36.15
2023-03-06T00:28:59.188Z,35.33
2023-03-06T00:31:25.623Z,35.39
2023-03-06T00:33:52.122Z,35.56
2023-03-06T00:36:18.549Z,35.66
2023-03-06T00:38:44.941Z,35.66
2023-03-06T00:41:11.316Z,35.74
2023-03-06T00:43:37.711Z,35.88
2023-03-06T00:46:04.404Z,35.51
2023-03-06T00:48:30.771Z,35.09
2023-03-06T00:50:57.236Z,34.94
2023-03-06T00:53:23.703Z,34.46
2023-03-06T00:55:50.210Z,35.29
2023-03-06T00:58:16.913Z,34.83
2023-03-06T01:00:43.376Z,34.80
2023-03-06T01:03:10.865Z,34.62
2023-03-06T01:05:37.402Z,34.22
2023-03-06T01:08:03.868Z,34.70
2023-03-06T01:10:30.329Z,34.77
2023-03-06T01:12:57.244Z,34.52
2023-03-06T01:15:23.673Z,34.25
2023-03-06T01:17:50.041Z,34.03
2023-03-06T01:20:16.590Z,33.25
2023-03-06T01:22:42.991Z,34.10
2023-03-06T01:25:09.789Z,34.40
2023-03-06T01:27:36.206Z,34.26
2023-03-06T01:30:03.092Z,34.51
2023-03-06T01:32:29.723Z,34.48
2023-03-06T01:34:56.140Z,33.94
2023-03-06T01:37:22.585Z,33.57
2023-03-06T01:39:48.994Z,33.42
2023-03-06T01:42:15.385Z,34.02
2023-03-06T01:44:42.049Z,33.46
2023-03-06T01:47:08.474Z,33.42
2023-03-06T01:49:34.888Z,33.04
2023-03-06T01:52:01.682Z,33.52
2023-03-06T01:54:28.070Z,33.24
2023-03-06T01:56:54.471Z,33.35
2023-03-06T01:59:20.931Z,32.96
2023-03-06T02:01:48.018Z,32.87
2023-03-06T02:04:14.435Z,32.74
2023-03-06T02:06:40.860Z,33.00
2023-03-06T02:09:07.245Z,33.43
2023-03-06T02:11:33.835Z,32.89
2023-03-06T02:14:00.294Z,32.71
2023-03-06T02:16:26.938Z,33.15
2023-03-06T02:18:53.461Z,33.24
2023-03-06T02:21:19.930Z,33.13
2023-03-06T02:23:46.482Z,33.42
2023-03-06T02:26:12.916Z,32.75
2023-03-06T02:28:39.852Z,33.54
2023-03-06T02:31:06.385Z,33.01
2023-03-06T02:33:32.903Z,33.30
2023-03-06T02:35:59.428Z,32.76
2023-03-06T02:38:25.838Z,33.20
2023-03-06T02:40:52.268Z,32.86
2023-03-06T02:43:18.634Z,32.69
2023-03-06T02:45:45.221Z,32.73
2023-03-06T02:48:11.654Z,32.92
2023-03-06T02:50:38.363Z,33.57
2023-03-06T02:53:04.893Z,33.10
2023-03-06T02:55:31.326Z,33.70
2023-03-06T02:57:57.827Z,33.18
2023-03-06T03:00:24.571Z,32.91
2023-03-06T03:02:50.943Z,33.05
2023-03-06T03:05:17.369Z,32.58
2023-03-06T03:07:43.915Z,32.78
2023-03-06T03:10:10.355Z,32.77
2023-03-06T03:12:36.771Z,32.82
2023-03-06T03:15:03.187Z,32.90
2023-03-06T03:17:29.603Z,33.38
2023-03-06T03:20:00.371Z,32.68
2023-03-06T03:22:27.296Z,32.56
2023-03-06T03:24:53.686Z,32.95
2023-03-06T03:27:20.129Z,33.03
2023-03-06T03:29:46.555Z,33.02
2023-03-06T03:32:13.032Z,33.36
2023-03-06T03:34:39.467Z,33.04
2023-03-06T03:37:05.841Z,33.64
2023-03-06T03:39:32.255Z,33.30
2023-03-06T03:41:58.616Z,33.53
2023-03-06T03:44:25.071Z,33.45
2023-03-06T03:46:51.563Z,33.33
2023-03-06T03:49:18.025Z,33.59
2023-03-06T03:51:44.452Z,33.48
2023-03-06T03:54:10.904Z,33.44
2023-03-06T03:56:37.439Z,33.63
2023-03-06T03:59:04.069Z,33.54
2023-03-06T04:01:30.516Z,33.40
2023-03-06T04:03:56.935Z,33.51
2023-03-06T04:06:23.718Z,33.81
2023-03-06T04:08:50.211Z,33.46
2023-03-06T04:11:16.634Z,33.69
2023-03-06T04:13:43.014Z,33.93
2023-03-06T04:16:09.583Z,33.49
2023-03-06T04:18:36.443Z,33.89
2023-03-06T04:21:02.771Z,34.04
2023-03-06T04:23:29.191Z,34.05
2023-03-06T04:25:55.631Z,33.88
2023-03-06T04:28:22.682Z,33.56
2023-03-06T04:30:49.118Z,33.94
2023-03-06T04:33:15.555Z,34.03
2023-03-06T04:35:41.995Z,34.27
2023-03-06T04:38:08.551Z,34.20
2023-03-06T04:40:34.999Z,34.59
2023-03-06T04:43:01.832Z,34.76
2023-03-06T04:45:28.290Z,34.01
2023-03-06T04:47:54.757Z,34.91
2023-03-06T04:50:21.173Z,34.52
2023-03-06T04:52:47.553Z,35.10
2023-03-06T04:55:14.096Z,35.24
2023-03-06T04:57:40.489Z,34.94
2023-03-06T05:00:06.987Z,35.36
2023-03-06T05:02:33.584Z,35.22
2023-03-06T05:05:00.130Z,35.20
2023-03-06T05:07:26.856Z,35.37
2023-03-06T05:09:53.347Z,35.73
2023-03-06T05:12:19.985Z,36.23
2023-03-06T05:14:48.048Z,36.34
2023-03-06T05:17:14.617Z,36.20
2023-03-06T05:19:41.060Z,36.75
2023-03-06T05:22:07.601Z,36.53
2023-03-06T05:24:34.032Z,36.24
2023-03-06T05:27:00.521Z,36.17
2023-03-06T05:29:27.047Z,36.55
2023-03-06T05:31:53.831Z,36.69
2023-03-06T05:34:20.606Z,36.90
2023-03-06T05:36:47.079Z,36.70
2023-03-06T05:39:13.761Z,36.48
2023-03-06T05:41:40.298Z,37.30
2023-03-06T05:44:06.702Z,36.95
2023-03-06T05:46:33.174Z,37.47
2023-03-06T05:48:59.680Z,37.23
2023-03-06T05:51:26.121Z,37.41
2023-03-06T05:53:52.788Z,36.96
2023-03-06T05:56:19.529Z,37.29
2023-03-06T05:58:45.982Z,36.74
2023-03-06T06:01:12.472Z,37.29
2023-03-06T06:03:38.968Z,36.56
2023-03-06T06:06:05.460Z,37.35
2023-03-06T06:08:31.899Z,36.97
2023-03-06T06:10:58.304Z,36.47
2023-03-06T06:13:24.806Z,37.16
2023-03-06T06:15:51.208Z,37.09
2023-03-06T06:18:17.732Z,36.77
2023-03-06T06:20:44.210Z,36.81
2023-03-06T06:23:10.680Z,36.82
2023-03-06T06:25:37.074Z,36.77
2023-03-06T06:28:03.718Z,37.07
2023-03-06T06:30:30.207Z,36.98
2023-03-06T06:32:56.644Z,37.09
2023-03-06T06:35:23.146Z,37.18
2023-03-06T06:37:49.631Z,36.51
2023-03-06T06:40:16.075Z,37.40
2023-03-06T06:42:42.590Z,37.05
2023-03-06T06:45:09.141Z,37.18
2023-03-06T06:47:35.630Z,37.30
2023-03-06T06:50:02.103Z,37.09
2023-03-06T06:52:28.521Z,37.29
2023-03-06T06:54:54.972Z,37.17
2023-03-06T06:57:21.404Z,37.11
2023-03-06T06:59:47.890Z,37.10
2023-03-06T07:02:14.371Z,36.79
2023-03-06T07:04:52.387Z,36.48
2023-03-06T07:07:27.396Z,36.83
2023-03-06T07:09:53.863Z,36.15
2023-03-06T07:12:20.329Z,36.71
2023-03-06T07:14:46.748Z,36.81
2023-03-06T07:17:13.175Z,36.26
2023-03-06T07:19:39.690Z,36.68
2023-03-06T07:22:06.089Z,35.86
2023-03-06T07:24:32.595Z,36.13
2023-03-06T07:26:59.031Z,36.29
2023-03-06T07:29:25.513Z,35.78
2023-03-06T07:31:51.954Z,44.39
2023-03-06T07:34:18.392Z,46.81
2023-03-06T07:36:45.016Z,46.56
2023-03-06T07:39:11.540Z,37.67
2023-03-06T07:41:37.909Z,37.02
2023-03-06T07:44:04.379Z,37.37
2023-03-06T07:46:30.829Z,35.53
2023-03-06T07:48:57.325Z,35.97
2023-03-06T07:51:23.759Z,35.51
2023-03-06T07:53:50.322Z,36.76
2023-03-06T07:56:16.832Z,35.61
2023-03-06T07:58:43.303Z,35.11
2023-03-06T08:01:09.860Z,35.03
2023-03-06T08:03:36.253Z,34.80
2023-03-06T08:06:03.034Z,34.97
2023-03-06T08:08:29.443Z,34.12
2023-03-06T08:10:55.851Z,38.51
2023-03-06T08:13:22.297Z,44.87
2023-03-06T08:15:48.693Z,39.38
2023-03-06T08:18:15.133Z,34.91
2023-03-06T08:20:41.522Z,34.41
2023-03-06T08:23:08.008Z,34.35
2023-03-06T08:25:34.421Z,34.93
2023-03-06T08:28:01.097Z,34.59
2023-03-06T08:30:27.561Z,34.36
2023-03-06T08:32:53.895Z,34.63
2023-03-06T08:35:20.550Z,34.32
2023-03-06T08:37:47.072Z,34.59
2023-03-06T08:40:13.523Z,34.79
2023-03-06T08:42:39.916Z,34.80
2023-03-06T08:45:06.408Z,34.60
2023-03-06T08:47:32.913Z,34.38
2023-03-06T08:50:00.584Z,34.43
2023-03-06T08:52:27.625Z,33.94
2023-03-06T08:54:54.043Z,34.12
2023-03-06T08:57:20.582Z,33.96
2023-03-06T08:59:47.168Z,33.75
2023-03-06T09:02:13.732Z,33.95
2023-03-06T09:04:40.622Z,34.06
2023-03-06T09:07:07.060Z,33.96
2023-03-06T09:09:33.585Z,34.13
2023-03-06T09:12:00.098Z,34.53
2023-03-06T09:14:26.507Z,34.19
2023-03-06T09:16:53.092Z,34.28
2023-03-06T09:19:19.662Z,34.41
2023-03-06T09:21:46.166Z,34.46
2023-03-06T09:24:12.567Z,34.38
2023-03-06T09:26:46.152Z,34.46
2023-03-06T09:29:13.546Z,34.87
2023-03-06T09:31:40.368Z,34.44
2023-03-06T09:34:06.838Z,34.43
2023-03-06T09:36:42.738Z,34.23
2023-03-06T09:39:12.225Z,34.34
2023-03-06T09:41:38.756Z,34.19
2023-03-06T09:44:05.343Z,34.44
2023-03-06T09:46:31.867Z,34.48
2023-03-06T09:48:58.470Z,34.15
2023-03-06T09:51:24.966Z,33.86
2023-03-06T09:53:51.451Z,34.04
2023-03-06T09:56:17.845Z,34.70
2023-03-06T09:58:44.222Z,34.53
2023-03-06T10:01:10.671Z,34.48
2023-03-06T10:03:37.156Z,34.59
2023-03-06T10:06:03.640Z,34.11
2023-03-06T10:08:32.203Z,34.29
2023-03-06T10:10:58.653Z,34.62
2023-03-06T10:13:25.059Z,34.62
2023-03-06T10:15:51.522Z,34.26
2023-03-06T10:18:18.026Z,34.11
2023-03-06T10:20:44.907Z,33.93
2023-03-06T10:23:12.110Z,33.98
2023-03-06T10:25:38.574Z,34.31
2023-03-06T10:28:04.998Z,34.57
2023-03-06T10:30:31.553Z,34.02
2023-03-06T10:32:58.052Z,33.43
2023-03-06T10:35:24.570Z,33.15
2023-03-06T10:37:51.010Z,33.36
2023-03-06T10:40:17.520Z,33.57
2023-03-06T10:42:43.964Z,33.47
2023-03-06T10:45:10.447Z,33.68
2023-03-06T10:47:36.886Z,33.67
2023-03-06T10:50:03.369Z,33.65
2023-03-06T10:52:29.752Z,33.64
2023-03-06T10:54:56.222Z,33.21
2023-03-06T10:57:22.603Z,37.86
2023-03-06T10:59:48.998Z,33.44
2023-03-06T11:02:15.483Z,33.41
2023-03-06T11:04:41.942Z,33.45
2023-03-06T11:07:08.392Z,33.12
2023-03-06T11:09:34.797Z,32.96
2023-03-06T11:12:01.247Z,33.44
2023-03-06T11:14:27.772Z,32.93
2023-03-06T11:16:54.200Z,32.69
2023-03-06T11:19:20.605Z,32.58
2023-03-06T11:21:47.073Z,33.04
2023-03-06T11:24:13.495Z,33.66
2023-03-06T11:26:39.905Z,33.48
2023-03-06T11:29:06.419Z,33.48
2023-03-06T11:31:32.921Z,33.18
2023-03-06T11:33:59.377Z,32.50
2023-03-06T11:36:25.992Z,32.64
2023-03-06T11:38:52.426Z,32.44
2023-03-06T11:41:18.817Z,32.81
2023-03-06T11:43:45.380Z,32.29
2023-03-06T11:46:11.969Z,32.36
2023-03-06T11:48:38.392Z,32.31
2023-03-06T11:51:06.406Z,32.83
2023-03-06T11:53:33.136Z,33.31
2023-03-06T11:56:00.716Z,33.33
2023-03-06T11:58:27.119Z,33.18
2023-03-06T12:00:56.210Z,33.19
2023-03-06T12:03:22.591Z,33.42
2023-03-06T12:05:48.999Z,32.79
2023-03-06T12:08:15.385Z,32.76
2023-03-06T12:10:42.057Z,32.78
2023-03-06T12:13:08.515Z,32.72
2023-03-06T12:15:34.970Z,33.48
2023-03-06T12:18:01.373Z,33.01
2023-03-06T12:20:27.806Z,33.01
2023-03-06T12:23:02.401Z,32.44
2023-03-06T12:25:38.543Z,33.09
2023-03-06T12:28:04.913Z,33.14
2023-03-06T12:30:31.386Z,33.27
2023-03-06T12:32:57.821Z,33.65
2023-03-06T12:35:24.361Z,34.03
2023-03-06T12:37:50.847Z,33.77
2023-03-06T12:40:17.412Z,33.82
2023-03-06T12:42:44.192Z,33.90
2023-03-06T12:45:10.949Z,33.74
2023-03-06T12:47:37.438Z,33.73
2023-03-06T12:50:03.868Z,32.85
2023-03-06T12:52:30.826Z,32.79
2023-03-06T12:54:57.759Z,32.97
2023-03-06T12:57:24.173Z,32.73
2023-03-06T12:59:50.607Z,33.93
2023-03-06T13:02:17.142Z,33.67
2023-03-06T13:04:43.854Z,33.47
2023-03-06T13:07:10.707Z,33.70
2023-03-06T13:09:37.149Z,33.35
2023-03-06T13:12:03.632Z,33.09
2023-03-06T13:14:30.101Z,32.83
2023-03-06T13:16:56.653Z,32.88
2023-03-06T13:19:23.159Z,32.87
2023-03-06T13:21:49.639Z,32.43
2023-03-06T13:24:18.633Z,29.81
2023-03-06T13:26:45.091Z,27.90
2023-03-06T13:29:12.215Z,28.54
2023-03-06T13:31:38.652Z,29.01
2023-03-06T13:34:05.155Z,29.31
2023-03-06T13:36:31.612Z,29.38
2023-03-06T13:38:58.059Z,29.10
2023-03-06T13:41:24.574Z,29.68
2023-03-06T13:43:51.016Z,29.93
2023-03-06T13:46:17.470Z,30.27
2023-03-06T13:48:45.985Z,29.73
2023-03-06T13:51:12.626Z,29.38
2023-03-06T13:53:39.061Z,29.61
2023-03-06T13:56:05.963Z,29.68
2023-03-06T13:58:32.497Z,29.46
2023-03-06T14:00:58.972Z,29.46
2023-03-06T14:03:25.460Z,29.74
2023-03-06T14:05:52.160Z,29.61
2023-03-06T14:08:18.640Z,29.18
2023-03-06T14:10:45.133Z,29.37
2023-03-06T14:13:11.646Z,30.12
2023-03-06T14:15:38.087Z,29.62
2023-03-06T14:18:04.758Z,29.28
2023-03-06T14:20:31.221Z,29.53
2023-03-06T14:22:58.652Z,33.78
2023-03-06T14:25:27.749Z,30.02
2023-03-06T14:27:56.454Z,29.78
2023-03-06T14:30:26.842Z,29.19
2023-03-06T14:32:56.923Z,29.20
2023-03-06T14:35:23.688Z,30.34
2023-03-06T14:37:50.192Z,29.63
2023-03-06T14:40:16.595Z,29.28
2023-03-06T14:42:42.990Z,29.69
2023-03-06T14:45:09.760Z,30.29
2023-03-06T14:47:37.297Z,30.21
2023-03-06T14:50:03.760Z,30.52
2023-03-06T14:52:30.338Z,29.97
2023-03-06T14:54:56.701Z,29.82
2023-03-06T14:57:23.408Z,29.80
2023-03-06T14:59:49.838Z,29.51
2023-03-06T15:02:17.780Z,29.47
2023-03-06T15:04:44.220Z,29.75
2023-03-06T15:07:10.907Z,29.27
2023-03-06T15:09:37.340Z,29.34
2023-03-06T15:12:03.930Z,29.65
2023-03-06T15:14:30.375Z,29.45
2023-03-06T15:16:56.756Z,29.33
2023-03-06T15:19:23.241Z,29.67
2023-03-06T15:21:49.635Z,30.35
2023-03-06T15:24:16.178Z,29.93
2023-03-06T15:26:43.007Z,29.63
2023-03-06T15:29:10.287Z,29.23
2023-03-06T15:31:37.349Z,28.96
2023-03-06T15:34:04.118Z,29.93
2023-03-06T15:36:30.913Z,29.84
2023-03-06T15:38:57.572Z,29.05
2023-03-06T15:41:24.019Z,29.32
2023-03-06T15:43:50.677Z,29.92
2023-03-06T15:46:17.160Z,29.42
2023-03-06T15:48:43.610Z,29.33
2023-03-06T15:51:10.080Z,30.31
2023-03-06T15:53:36.593Z,31.41
2023-03-06T15:56:03.524Z,30.61
2023-03-06T15:58:30.385Z,30.36
2023-03-06T16:00:58.648Z,30.73
2023-03-06T16:03:25.218Z,30.39
2023-03-06T16:05:51.786Z,30.40
2023-03-06T16:08:18.518Z,30.10
2023-03-06T16:10:45.749Z,29.84
2023-03-06T16:13:12.410Z,29.89
2023-03-06T16:15:38.886Z,30.14
2023-03-06T16:18:08.505Z,30.29
2023-03-06T16:20:34.987Z,30.24
2023-03-06T16:23:01.454Z,30.97
2023-03-06T16:25:28.446Z,30.75
2023-03-06T16:27:55.226Z,30.37
2023-03-06T16:30:21.698Z,30.56
2023-03-06T16:32:48.566Z,31.19
2023-03-06T16:35:15.948Z,30.39
2023-03-06T16:37:42.817Z,30.49
2023-03-06T16:40:12.200Z,30.42
2023-03-06T16:42:39.304Z,30.20
2023-03-06T16:45:06.179Z,31.20
2023-03-06T16:47:34.306Z,31.11
2023-03-06T16:50:01.428Z,30.77
2023-03-06T16:52:28.395Z,30.76
2023-03-06T16:54:54.913Z,30.79
2023-03-06T16:57:21.542Z,30.94
2023-03-06T16:59:48.672Z,31.63
2023-03-06T17:02:15.524Z,32.00
2023-03-06T17:04:43.441Z,31.53
2023-03-06T17:07:09.944Z,31.62
2023-03-06T17:09:36.589Z,31.71
2023-03-06T17:12:03.282Z,31.81
2023-03-06T17:14:30.245Z,31.79
2023-03-06T17:16:59.473Z,31.74
2023-03-06T17:19:27.362Z,31.80
2023-03-06T17:21:54.432Z,31.22
2023-03-06T17:24:22.149Z,31.66
2023-03-06T17:26:49.055Z,31.60
2023-03-06T17:29:15.758Z,31.58
2023-03-06T17:31:42.319Z,31.55
2023-03-06T17:34:09.179Z,31.60
2023-03-06T17:36:36.144Z,31.28
2023-03-06T17:39:03.396Z,31.74
2023-03-06T17:41:30.651Z,31.79
2023-03-06T17:43:57.480Z,31.96
2023-03-06T17:46:24.179Z,32.21
2023-03-06T17:48:50.782Z,32.12
2023-03-06T17:51:17.500Z,32.74
2023-03-06T17:53:44.912Z,33.95
2023-03-06T17:56:11.690Z,33.06
2023-03-06T17:58:38.638Z,32.48
2023-03-06T18:01:06.434Z,32.40
2023-03-06T18:03:33.179Z,32.18
2023-03-06T18:06:00.139Z,32.86
2023-03-06T18:08:29.304Z,32.76
2023-03-06T18:10:56.558Z,32.88
2023-03-06T18:13:23.678Z,33.28
2023-03-06T18:15:51.177Z,33.21
2023-03-06T18:18:18.321Z,32.98
2023-03-06T18:20:47.150Z,32.92
2023-03-06T18:23:14.252Z,33.40
2023-03-06T18:25:43.523Z,33.42
2023-03-06T18:28:11.360Z,33.39
2023-03-06T18:30:38.183Z,33.63
2023-03-06T18:33:07.280Z,33.47
2023-03-06T18:35:34.295Z,33.48
2023-03-06T18:38:00.910Z,33.56
2023-03-06T18:40:27.890Z,33.78
2023-03-06T18:42:55.032Z,33.75
2023-03-06T18:45:21.624Z,33.82
2023-03-06T18:47:48.537Z,34.15
2023-03-06T18:50:15.650Z,34.17
2023-03-06T18:52:49.221Z,34.29
2023-03-06T18:55:20.030Z,34.15
2023-03-06T18:57:48.716Z,34.54
2023-03-06T19:00:15.744Z,36.08
2023-03-06T19:02:42.652Z,35.12
2023-03-06T19:05:09.400Z,34.98
2023-03-06T19:07:37.121Z,34.69
2023-03-06T19:10:05.164Z,34.88
2023-03-06T19:12:32.242Z,34.78
2023-03-06T19:14:59.375Z,35.64
2023-03-06T19:17:28.947Z,36.08
2023-03-06T19:19:56.051Z,39.54
2023-03-06T19:22:23.626Z,37.15
2023-03-06T19:24:50.627Z,35.68
2023-03-06T19:27:17.672Z,35.30
2023-03-06T19:29:44.273Z,35.65
2023-03-06T19:32:11.399Z,35.46
2023-03-06T19:34:39.666Z,36.15
2023-03-06T19:37:06.752Z,35.13
2023-03-06T19:39:34.613Z,35.68
2023-03-06T19:42:02.447Z,42.94
2023-03-06T19:44:31.675Z,43.04
2023-03-06T19:46:58.708Z,41.57
2023-03-06T19:49:28.624Z,36.10
2023-03-06T19:51:55.633Z,36.22
2023-03-06T19:54:24.415Z,34.79
2023-03-06T19:56:51.453Z,34.73
2023-03-06T19:59:18.638Z,34.19
2023-03-06T20:01:45.722Z,35.01
2023-03-06T20:04:13.315Z,35.79
2023-03-06T20:06:40.592Z,35.16
2023-03-06T20:09:07.580Z,34.94
2023-03-06T20:11:37.455Z,34.49
2023-03-06T20:14:04.553Z,34.88
2023-03-06T20:16:32.224Z,36.49
2023-03-06T20:18:59.664Z,35.73
2023-03-06T20:21:26.907Z,35.77
2023-03-06T20:23:54.050Z,35.96
2023-03-06T20:26:20.689Z,35.55
2023-03-06T20:28:47.617Z,35.90
2023-03-06T20:31:15.395Z,35.04
2023-03-06T20:33:42.877Z,35.48
2023-03-06T20:36:09.984Z,35.47
2023-03-06T20:38:37.092Z,35.25
2023-03-06T20:41:04.126Z,34.94
2023-03-06T20:43:30.997Z,34.90
2023-03-06T20:45:57.974Z,34.42
2023-03-06T20:48:25.936Z,34.42
2023-03-06T20:50:53.033Z,34.53
2023-03-06T20:53:19.947Z,34.11
2023-03-06T20:58:29.743Z,34.19
2023-03-06T21:00:56.606Z,33.88
2023-03-06T21:03:23.400Z,34.24
2023-03-06T21:05:50.101Z,33.81
2023-03-06T21:08:17.286Z,34.60
2023-03-06T21:10:44.768Z,33.86
2023-03-06T21:13:12.281Z,34.68
2023-03-06T21:15:39.083Z,34.85
2023-03-06T21:18:05.638Z,34.56
2023-03-06T21:20:34.899Z,34.65
2023-03-06T21:23:03.346Z,34.59
2023-03-06T21:25:30.064Z,35.25
2023-03-06T21:27:56.903Z,34.96
2023-03-06T21:30:25.515Z,34.69
2023-03-06T21:32:53.382Z,34.66
2023-03-06T21:35:19.946Z,34.26
2023-03-06T21:37:46.688Z,34.20
2023-03-06T21:40:13.164Z,34.04
2023-03-06T21:42:39.606Z,34.05
2023-03-06T21:45:05.997Z,34.12
2023-03-06T21:47:33.523Z,34.29
2023-03-06T21:49:59.933Z,33.99
2023-03-06T21:52:26.651Z,33.83
2023-03-06T21:54:53.328Z,33.70
2023-03-06T21:57:19.835Z,34.01
2023-03-06T21:59:46.225Z,34.03
2023-03-06T22:02:12.763Z,33.93
2023-03-06T22:04:39.189Z,33.89
2023-03-06T22:07:05.634Z,33.76
2023-03-06T22:09:32.901Z,34.11
2023-03-06T22:11:59.337Z,34.26
2023-03-06T22:14:25.866Z,34.15
2023-03-06T22:16:52.400Z,34.56
2023-03-06T22:19:18.960Z,34.76
2023-03-06T22:21:45.750Z,34.29
2023-03-06T22:24:12.338Z,34.17
2023-03-06T22:26:38.904Z,34.57
2023-03-06T22:29:05.301Z,34.93
2023-03-06T22:31:31.842Z,35.00
2023-03-06T22:33:58.374Z,34.97
2023-03-06T22:36:24.822Z,35.63
2023-03-06T22:38:51.356Z,35.69
2023-03-06T22:41:17.751Z,36.00
2023-03-06T22:43:44.313Z,35.51
2023-03-06T22:46:13.173Z,35.84
2023-03-06T22:48:39.590Z,35.76
2023-03-06T22:51:06.236Z,36.22
2023-03-06T22:53:32.694Z,36.36
2023-03-06T22:55:59.136Z,36.40
2023-03-06T22:58:25.875Z,37.05
2023-03-06T23:00:52.443Z,36.13
2023-03-06T23:03:19.101Z,36.23
2023-03-06T23:05:45.544Z,37.21
2023-03-06T23:08:12.028Z,36.92
2023-03-06T23:10:38.653Z,36.53
2023-03-06T23:13:05.081Z,35.96
2023-03-06T23:15:31.603Z,36.00
2023-03-06T23:17:58.044Z,36.25
2023-03-06T23:20:24.470Z,36.47
2023-03-06T23:22:50.934Z,36.43
2023-03-06T23:25:17.378Z,36.53
2023-03-06T23:27:43.802Z,36.50
2023-03-06T23:30:10.278Z,36.49
2023-03-06T23:32:36.795Z,36.56
2023-03-06T23:35:03.469Z,37.75
2023-03-06T23:37:29.863Z,37.34
2023-03-06T23:39:56.417Z,37.26
2023-03-06T23:42:22.848Z,37.82
2023-03-06T23:44:49.416Z,37.65
2023-03-06T23:47:15.859Z,37.67
2023-03-06T23:49:42.462Z,37.06
2023-03-06T23:52:08.929Z,37.30
2023-03-06T23:54:35.444Z,37.20
2023-03-06T23:57:01.862Z,37.20
2023-03-06T23:59:28.433Z,37.96
